Time;durP1;ratioP1;P1;durP2;ratioP2;P2;SDS_P1;SDS_P2;PMS_P1;PMS_P2;Temp;Humidity;BMP_temperature;BMP_pressure;BME280_temperature;BME280_humidity;BME280_pressure;Samples;Min_cycle;Max_cycle;Signal;HPM_P1;HPM_P2
2021/08/07 00:01:14;;;;;;;0.37;0.37;;;;;;;16.52;69.51;98117.78;5042539;28;43160;-86
2021/08/07 00:04:01;;;;;;;0.70;0.70;;;;;;;16.44;69.37;98109.66;5041613;28;43913;-85
2021/08/07 00:06:47;;;;;;;1.43;0.60;;;;;;;16.34;69.30;98096.34;5043572;28;42982;-86
2021/08/07 00:09:34;;;;;;;0.40;0.40;;;;;;;16.46;69.27;98121.03;5039765;28;41680;-86
2021/08/07 00:12:21;;;;;;;0.60;0.60;;;;;;;16.35;69.31;98114.06;5031938;28;42544;-86
2021/08/07 00:15:08;;;;;;;0.63;0.63;;;;;;;16.25;69.50;98096.41;5031928;28;43715;-87
2021/08/07 00:17:54;;;;;;;0.40;0.40;;;;;;;16.22;69.51;98102.06;5045715;28;42913;-86
2021/08/07 00:20:40;;;;;;;0.43;0.40;;;;;;;16.27;70.08;98115.81;5046416;28;40397;-86
2021/08/07 00:23:26;;;;;;;0.40;0.40;;;;;;;16.23;69.89;98109.09;5031334;28;42566;-86
2021/08/07 00:26:13;;;;;;;0.87;0.80;;;;;;;16.08;69.72;98101.56;5043969;28;44228;-86
2021/08/07 00:28:59;;;;;;;0.50;0.50;;;;;;;16.05;69.98;98107.22;5029780;28;43806;-86
2021/08/07 00:31:45;;;;;;;1.10;0.40;;;;;;;16.13;69.59;98120.66;5043891;28;40781;-87
2021/08/07 00:34:31;;;;;;;0.30;0.30;;;;;;;16.03;70.00;98111.03;5029512;28;42520;-86
2021/08/07 00:37:18;;;;;;;0.20;0.20;;;;;;;16.03;69.83;98109.19;5030027;28;43562;-85
2021/08/07 00:40:16;;;;;;;0.20;0.20;;;;;;;16.01;69.78;98095.16;5029939;28;43750;-86
2021/08/07 00:43:09;;;;;;;0.73;0.50;;;;;;;16.12;70.02;98108.28;5043832;28;40493;-86
2021/08/07 00:45:58;;;;;;;0.50;0.50;;;;;;;16.09;69.66;98097.06;5029667;28;42497;-86
2021/08/07 00:48:50;;;;;;;0.30;0.30;;;;;;;15.98;69.60;98092.75;5028931;28;44173;-85
2021/08/07 00:51:37;;;;;;;0.67;0.40;;;;;;;15.94;69.71;98080.72;5030253;28;43166;-86
2021/08/07 00:54:29;;;;;;;0.60;0.60;;;;;;;16.00;69.61;98101.47;5030329;28;41544;-86
2021/08/07 00:57:23;;;;;;;0.47;0.37;;;;;;;15.90;69.64;98076.66;5030019;28;42578;-86
2021/08/07 01:00:12;;;;;;;0.40;0.40;;;;;;;15.93;69.78;98079.03;5029432;28;43531;-85
2021/08/07 01:03:10;;;;;;;0.63;0.63;;;;;;;15.78;69.62;98061.81;5028658;28;43026;-86
2021/08/07 01:06:06;;;;;;;0.73;0.40;;;;;;;15.98;69.79;98087.41;5029714;28;41659;-86
2021/08/07 01:09:02;;;;;;;0.57;0.40;;;;;;;15.98;70.11;98086.59;5030037;28;42535;-85
2021/08/07 01:11:54;;;;;;;0.27;0.27;;;;;;;15.92;69.91;98074.69;5043157;28;44152;-87
2021/08/07 01:14:43;;;;;;;0.40;0.40;;;;;;;15.96;69.82;98073.38;5029380;28;42775;-87
2021/08/07 01:17:35;;;;;;;0.37;0.33;;;;;;;15.98;69.87;98063.38;5043359;28;40788;-87
2021/08/07 01:20:28;;;;;;;0.40;0.40;;;;;;;15.99;69.65;98062.41;5029210;28;43439;-86
2021/08/07 01:23:24;;;;;;;0.20;0.20;;;;;;;16.07;70.08;98080.38;5042477;28;43563;-85
2021/08/07 01:26:29;;;;;;;0.40;0.40;;;;;;;16.08;70.44;98090.88;5029502;28;42976;-86
2021/08/07 01:29:43;;;;;;;0.33;0.33;;;;;;;15.96;70.22;98060.03;5029542;28;40792;-86
2021/08/07 01:32:32;;;;;;;0.37;0.37;;;;;;;16.03;70.01;98081.66;5028666;28;42498;-86
2021/08/07 01:35:19;;;;;;;0.53;0.53;;;;;;;15.92;70.58;98064.00;5029533;28;43539;-86
2021/08/07 01:38:10;;;;;;;1.10;0.30;;;;;;;15.92;70.45;98064.00;5042165;28;42802;-86
2021/08/07 01:41:14;;;;;;;0.37;0.37;;;;;;;15.97;70.73;98075.06;5028813;28;40689;-86
2021/08/07 01:44:02;;;;;;;0.30;0.30;;;;;;;15.86;70.29;98059.25;5042660;28;42480;-86
2021/08/07 01:46:55;;;;;;;0.30;0.30;;;;;;;15.97;70.35;98068.88;5042308;28;44385;-85
2021/08/07 01:49:55;;;;;;;0.23;0.23;;;;;;;15.79;70.14;98042.16;5029261;28;42790;-87
2021/08/07 01:52:45;;;;;;;0.43;0.43;;;;;;;15.99;70.37;98069.56;5042954;28;40881;-87
2021/08/07 01:55:45;;;;;;;0.53;0.30;;;;;;;15.90;70.32;98049.94;5029387;28;42193;-87
2021/08/07 01:58:35;;;;;;;0.30;0.30;;;;;;;15.89;70.25;98036.75;5029241;28;43724;-86
2021/08/07 02:01:25;;;;;;;0.30;0.30;;;;;;;15.89;70.20;98034.06;5028751;28;42974;-87
2021/08/07 02:04:15;;;;;;;0.67;0.30;;;;;;;15.96;70.51;98045.84;5043296;28;41666;-87
2021/08/07 02:07:09;;;;;;;0.30;0.30;;;;;;;15.73;70.51;98010.69;5028396;28;43289;-87
2021/08/07 02:09:57;;;;;;;0.40;0.40;;;;;;;15.87;70.60;98041.38;5042497;28;43573;-86
2021/08/07 02:12:45;;;;;;;0.50;0.30;;;;;;;15.87;70.41;98047.56;5028637;28;42971;-86
2021/08/07 02:15:36;;;;;;;0.40;0.40;;;;;;;15.95;70.80;98058.34;5042634;28;40434;-86
2021/08/07 02:18:29;;;;;;;1.07;0.40;;;;;;;15.88;70.81;98041.25;5028123;28;42484;-87
2021/08/07 02:21:18;;;;;;;0.20;0.20;;;;;;;15.89;70.84;98034.06;5027516;28;43530;-87
2021/08/07 02:24:05;;;;;;;0.50;0.50;;;;;;;15.90;70.67;98044.63;5028083;28;43447;-86
2021/08/07 02:26:55;;;;;;;0.30;0.30;;;;;;;15.90;70.44;98039.28;5042499;28;41260;-88
2021/08/07 02:29:43;;;;;;;0.30;0.30;;;;;;;15.94;70.76;98040.66;5028207;28;42623;-86
2021/08/07 02:32:32;;;;;;;0.40;0.40;;;;;;;16.00;70.52;98021.34;5042566;28;43689;-87
2021/08/07 02:35:21;;;;;;;0.93;0.50;;;;;;;16.14;70.11;98028.03;5028201;28;43170;-86
2021/08/07 02:38:09;;;;;;;0.47;0.40;;;;;;;16.13;70.22;98021.84;5028376;28;41413;-87
2021/08/07 02:40:57;;;;;;;0.40;0.40;;;;;;;16.10;70.44;98024.81;5042114;28;43457;-88
2021/08/07 02:43:46;;;;;;;0.40;0.40;;;;;;;16.17;70.95;98027.72;5028253;28;43554;-86
2021/08/07 02:46:36;;;;;;;0.20;0.20;;;;;;;16.12;71.09;98021.97;5041957;28;42787;-87
2021/08/07 02:49:23;;;;;;;0.30;0.30;;;;;;;16.00;70.85;98013.34;5045675;28;40468;-86
2021/08/07 02:52:10;;;;;;;0.30;0.30;;;;;;;16.04;71.04;98012.06;5031040;28;42295;-87
2021/08/07 02:54:58;;;;;;;0.20;0.20;;;;;;;16.09;71.08;98019.59;5031323;28;43491;-85
2021/08/07 02:57:44;;;;;;;0.30;0.30;;;;;;;16.03;71.00;98007.72;5031420;28;43496;-87
2021/08/07 03:00:36;;;;;;;0.30;0.30;;;;;;;16.13;71.22;98021.00;5032070;28;41723;-86
2021/08/07 03:03:23;;;;;;;0.40;0.33;;;;;;;16.02;70.97;98002.50;5031312;28;43316;-86
2021/08/07 03:06:12;;;;;;;0.20;0.20;;;;;;;16.00;71.15;97999.16;5031858;28;43649;-86
2021/08/07 03:08:59;;;;;;;0.30;0.30;;;;;;;16.11;70.83;98021.13;5031230;28;42969;-86
2021/08/07 03:11:46;;;;;;;0.40;0.40;;;;;;;16.02;71.16;98003.34;5031247;28;41457;-85
2021/08/07 03:14:33;;;;;;;0.40;0.40;;;;;;;16.02;71.23;98007.84;5032214;28;41948;-87
2021/08/07 03:17:20;;;;;;;0.30;0.30;;;;;;;16.01;71.40;97998.16;5044907;28;43525;-87
2021/08/07 03:20:09;;;;;;;0.57;0.57;;;;;;;16.05;71.24;98016.41;5045579;28;42988;-86
2021/08/07 03:23:01;;;;;;;0.20;0.20;;;;;;;16.02;71.26;98000.69;5030890;28;40719;-86
2021/08/07 03:25:48;;;;;;;0.40;0.40;;;;;;;16.00;70.95;97993.81;5031483;28;42477;-86
2021/08/07 03:28:40;;;;;;;0.33;0.33;;;;;;;16.02;71.12;97998.00;5045176;28;43623;-87
2021/08/07 03:31:29;;;;;;;0.33;0.33;;;;;;;16.03;71.40;97998.84;5030968;28;43179;-87
2021/08/07 03:34:15;;;;;;;0.40;0.40;;;;;;;16.05;71.05;98005.72;5030805;28;41570;-87
2021/08/07 03:37:03;;;;;;;0.63;0.50;;;;;;;15.90;71.04;97980.53;5045187;28;42470;-86
2021/08/07 03:39:52;;;;;;;0.40;0.40;;;;;;;16.13;71.13;98024.50;5030362;28;43574;-86
2021/08/07 03:42:20;;;;;;;0.60;0.60;;;;;;;16.11;71.55;98021.13;5013936;28;41652;-86
2021/08/07 03:44:50;;;;;;;0.40;0.40;;;;;;;16.01;71.49;98004.34;5030078;28;39198;-87
2021/08/07 03:47:20;;;;;;;0.43;0.43;;;;;;;16.05;71.56;98012.91;5013353;28;40685;-86
2021/08/07 03:49:49;;;;;;;0.40;0.40;;;;;;;16.04;71.24;97998.72;5013863;28;41841;-87
2021/08/07 03:52:19;;;;;;;0.30;0.30;;;;;;;16.05;71.52;97995.06;5029974;28;41362;-86
2021/08/07 03:54:50;;;;;;;0.47;0.47;;;;;;;16.07;71.42;97993.03;5014423;28;39813;-86
2021/08/07 03:57:19;;;;;;;0.30;0.30;;;;;;;16.09;71.58;98001.75;5013423;28;40850;-86
2021/08/07 03:59:47;;;;;;;0.40;0.40;;;;;;;16.13;71.34;97999.63;5013570;28;42173;-86
2021/08/07 04:02:16;;;;;;;0.40;0.40;;;;;;;16.13;71.37;97997.78;5012923;28;41110;-86
2021/08/07 04:04:44;;;;;;;0.53;0.43;;;;;;;16.17;71.94;97998.34;5014333;28;38680;-86
2021/08/07 04:07:12;;;;;;;0.30;0.30;;;;;;;16.21;71.77;97999.69;5030082;28;41360;-87
2021/08/07 04:09:46;;;;;;;0.33;0.33;;;;;;;16.20;72.18;97981.16;5013491;28;42034;-85
2021/08/07 04:12:14;;;;;;;0.63;0.60;;;;;;;16.32;71.84;97990.66;5029611;28;42289;-89
2021/08/07 04:14:41;;;;;;;0.40;0.40;;;;;;;16.34;72.00;97984.13;5013602;28;38617;-86
2021/08/07 04:17:13;;;;;;;0.30;0.30;;;;;;;16.35;71.89;97984.97;5013051;28;41107;-87
2021/08/07 04:19:42;;;;;;;0.20;0.20;;;;;;;16.39;71.79;97981.84;5012583;28;41867;-86
2021/08/07 04:22:20;;;;;;;0.67;0.47;;;;;;;16.45;71.60;97985.72;5012587;28;41535;-86
2021/08/07 04:24:48;;;;;;;0.37;0.37;;;;;;;16.56;71.86;97988.19;5013271;28;39177;-87
2021/08/07 04:27:17;;;;;;;0.80;0.33;;;;;;;16.60;72.11;97994.88;5013944;28;42144;-86
2021/08/07 04:29:49;;;;;;;0.70;0.70;;;;;;;16.56;72.48;97990.00;5013252;28;42283;-86
2021/08/07 04:32:17;;;;;;;0.40;0.40;;;;;;;16.68;72.70;98002.16;5012751;28;41192;-85
2021/08/07 04:34:47;;;;;;;0.30;0.30;;;;;;;16.62;72.44;97992.06;5012894;28;39882;-86
2021/08/07 04:37:17;;;;;;;0.30;0.30;;;;;;;16.65;72.38;97986.44;5013482;28;40778;-85
2021/08/07 04:39:45;;;;;;;0.30;0.30;;;;;;;16.69;72.34;97993.16;5028977;28;41790;-87
2021/08/07 04:42:16;;;;;;;0.40;0.40;;;;;;;16.73;72.03;97998.03;5011765;28;41176;-86
2021/08/07 04:44:44;;;;;;;0.37;0.30;;;;;;;16.72;71.92;97996.34;5029562;28;41336;-88
2021/08/07 04:47:11;;;;;;;0.30;0.30;;;;;;;16.83;71.89;98001.44;5028800;28;41655;-86
2021/08/07 04:49:39;;;;;;;0.57;0.30;;;;;;;16.82;71.83;98002.44;5029748;28;42652;-86
2021/08/07 04:52:09;;;;;;;1.07;0.93;;;;;;;16.91;71.56;98002.50;5012302;28;41239;-85
2021/08/07 04:54:38;;;;;;;0.40;0.40;;;;;;;16.91;71.90;97989.13;5030008;28;39206;-86
2021/08/07 04:57:06;;;;;;;0.97;0.63;;;;;;;17.03;71.99;97995.91;5011859;28;40985;-87
2021/08/07 04:59:33;;;;;;;0.30;0.30;;;;;;;17.06;71.85;97984.91;5012939;28;41853;-86
2021/08/07 05:02:01;;;;;;;0.33;0.33;;;;;;;17.04;71.71;97986.88;5011937;28;40959;-86
2021/08/07 05:04:29;;;;;;;0.30;0.30;;;;;;;16.90;72.05;97958.88;5012310;28;40105;-87
2021/08/07 05:06:57;;;;;;;0.20;0.20;;;;;;;17.18;72.12;97986.31;5012460;28;40833;-86
2021/08/07 05:09:26;;;;;;;0.50;0.50;;;;;;;17.23;71.69;97981.31;5012332;28;41840;-87
2021/08/07 05:12:11;;;;;;;0.47;0.47;;;;;;;17.34;71.56;97991.72;5011493;28;41550;-86
2021/08/07 05:14:43;;;;;;;0.40;0.40;;;;;;;17.37;71.73;97978.03;5013123;28;39444;-85
2021/08/07 05:17:11;;;;;;;0.40;0.40;;;;;;;17.42;71.70;97970.38;5012909;28;40770;-88
2021/08/07 05:19:41;;;;;;;0.43;0.43;;;;;;;17.52;71.62;97971.09;5011603;28;43200;-86
2021/08/07 05:22:09;;;;;;;0.20;0.20;;;;;;;17.58;71.39;97965.06;5011655;28;41412;-86
2021/08/07 05:24:39;;;;;;;0.40;0.40;;;;;;;17.72;71.17;97962.81;5028750;28;39501;-86
2021/08/07 05:27:07;;;;;;;0.40;0.40;;;;;;;17.78;71.64;97957.66;5011788;28;40402;-86
2021/08/07 05:29:35;;;;;;;0.47;0.30;;;;;;;17.90;71.35;97968.91;5028102;28;42773;-86
2021/08/07 05:32:04;;;;;;;0.30;0.30;;;;;;;18.08;71.14;97983.00;5011238;28;41157;-87
2021/08/07 05:34:31;;;;;;;0.53;0.37;;;;;;;18.16;70.97;97991.06;5028347;28;40868;-87
2021/08/07 05:36:59;;;;;;;0.30;0.30;;;;;;;18.24;70.77;97988.41;5011904;28;40386;-86
2021/08/07 05:39:27;;;;;;;0.33;0.33;;;;;;;18.14;71.09;97958.25;5028979;28;43697;-86
2021/08/07 05:41:56;;;;;;;0.30;0.30;;;;;;;18.38;70.91;97983.38;5011203;28;41715;-86
2021/08/07 05:44:24;;;;;;;0.40;0.40;;;;;;;18.36;70.82;97969.31;5012457;28;39227;-86
2021/08/07 05:46:54;;;;;;;0.30;0.30;;;;;;;18.49;70.87;97985.75;5011235;28;41032;-86
2021/08/07 05:49:21;;;;;;;0.23;0.23;;;;;;;18.36;70.71;97958.59;5012613;28;41834;-86
2021/08/07 05:51:50;;;;;;;0.40;0.40;;;;;;;18.58;70.34;97984.75;5012500;28;41593;-86
2021/08/07 05:54:20;;;;;;;0.60;0.60;;;;;;;18.63;70.13;97977.06;5012265;28;38989;-87
2021/08/07 05:56:47;;;;;;;2.93;0.80;;;;;;;18.56;70.00;97965.28;5011977;28;40926;-87
2021/08/07 05:59:18;;;;;;;1.10;0.67;;;;;;;18.76;70.14;97982.75;5011387;28;44304;-88
2021/08/07 06:01:47;;;;;;;0.87;0.83;;;;;;;18.69;69.80;97954.09;5011502;28;41073;-86
2021/08/07 06:04:15;;;;;;;0.70;0.70;;;;;;;18.91;69.68;97967.66;5011152;28;39243;-86
2021/08/07 06:06:43;;;;;;;1.10;0.90;;;;;;;19.11;69.28;97978.00;5028412;28;40809;-87
2021/08/07 06:09:11;;;;;;;0.40;0.40;;;;;;;19.19;69.13;97972.63;5011088;28;42427;-87
2021/08/07 06:11:38;;;;;;;0.70;0.50;;;;;;;19.39;68.83;97979.28;4995562;28;42504;-87
2021/08/07 06:14:06;;;;;;;0.50;0.43;;;;;;;19.48;68.73;97967.50;5010601;28;39897;-86
2021/08/07 06:16:36;;;;;;;0.87;0.63;;;;;;;19.51;68.15;97960.97;5010766;28;40898;-86
2021/08/07 06:19:05;;;;;;;0.30;0.30;;;;;;;19.46;67.57;97942.66;5028122;28;41919;-86
2021/08/07 06:21:33;;;;;;;0.30;0.30;;;;;;;19.57;67.44;97955.75;5027948;28;41375;-86
2021/08/07 06:24:01;;;;;;;0.30;0.30;;;;;;;19.71;67.16;97968.44;5013010;28;41310;-87
2021/08/07 06:26:31;;;;;;;1.60;0.77;;;;;;;19.79;66.52;97958.66;5030786;28;40947;-87
2021/08/07 06:29:02;;;;;;;0.30;0.30;;;;;;;20.01;65.94;97974.00;5015164;28;42162;-87
2021/08/07 06:31:30;;;;;;;1.20;0.60;;;;;;;20.12;65.95;97960.16;5014362;28;41135;-86
2021/08/07 06:33:59;;;;;;;0.30;0.30;;;;;;;20.35;65.26;97963.72;5014711;28;40428;-87
2021/08/07 06:36:27;;;;;;;0.30;0.30;;;;;;;20.68;64.22;97987.66;5031136;28;40660;-86
2021/08/07 06:38:56;;;;;;;0.40;0.40;;;;;;;20.81;63.86;97971.75;5013937;28;43177;-87
2021/08/07 06:41:23;;;;;;;0.30;0.30;;;;;;;21.06;63.71;97967.81;5015495;28;41630;-87
2021/08/07 06:44:11;;;;;;;0.30;0.30;;;;;;;21.27;62.92;97977.03;5030577;28;38926;-87
2021/08/07 06:46:40;;;;;;;0.40;0.40;;;;;;;21.37;62.87;97966.84;5014419;28;41981;-86
2021/08/07 06:49:11;;;;;;;0.40;0.40;;;;;;;21.65;62.40;97994.78;5014155;28;41918;-87
2021/08/07 06:51:39;;;;;;;0.40;0.37;;;;;;;21.83;61.65;97992.56;5031045;28;41663;-86
2021/08/07 06:54:07;;;;;;;0.40;0.30;;;;;;;22.04;60.56;97999.03;5014785;28;39059;-86
2021/08/07 06:56:35;;;;;;;0.47;0.40;;;;;;;21.99;60.41;97998.78;5014849;28;40822;-86
2021/08/07 06:59:04;;;;;;;1.27;0.40;;;;;;;21.90;60.30;97995.31;5014222;28;41733;-87
2021/08/07 07:01:31;;;;;;;0.70;0.70;;;;;;;21.84;60.09;97991.53;5014918;28;41162;-87
2021/08/07 07:04:06;;;;;;;0.60;0.60;;;;;;;21.88;59.60;97994.69;5030401;28;40209;-87
2021/08/07 07:06:35;;;;;;;0.50;0.50;;;;;;;22.00;59.55;97989.69;5014178;28;41264;-87
2021/08/07 07:09:03;;;;;;;0.30;0.30;;;;;;;22.22;59.65;97983.31;5013786;28;41743;-88
2021/08/07 07:11:31;;;;;;;0.20;0.20;;;;;;;22.43;59.38;97966.28;5030447;28;41262;-87
2021/08/07 07:13:59;;;;;;;0.20;0.20;;;;;;;22.87;58.03;97987.72;5013763;28;39839;-88
2021/08/07 07:16:27;;;;;;;1.03;0.40;;;;;;;22.99;57.64;97980.75;5014153;28;41690;-87
2021/08/07 07:18:54;;;;;;;0.30;0.30;;;;;;;23.14;57.63;97967.97;5013728;28;42033;-88
2021/08/07 07:21:22;;;;;;;0.40;0.40;;;;;;;23.31;56.91;97970.38;5014286;28;42698;-87
2021/08/07 07:23:54;;;;;;;0.20;0.20;;;;;;;23.36;56.27;97981.44;5031225;28;39187;-88
2021/08/07 07:26:22;;;;;;;0.30;0.30;;;;;;;23.49;55.52;97992.31;5014269;28;41007;-88
2021/08/07 07:28:50;;;;;;;0.33;0.33;;;;;;;23.54;55.47;97981.75;5014054;28;43667;-88
2021/08/07 07:31:18;;;;;;;0.27;0.27;;;;;;;23.64;55.47;97969.53;5014458;28;42458;-88
2021/08/07 07:33:46;;;;;;;0.30;0.30;;;;;;;23.98;54.87;97979.47;5014007;28;39070;-88
2021/08/07 07:36:13;;;;;;;0.50;0.50;;;;;;;24.46;53.79;97990.28;5030093;28;41008;-88
2021/08/07 07:38:41;;;;;;;0.20;0.20;;;;;;;24.72;52.49;97977.81;5047498;28;43125;-87
2021/08/07 07:41:11;;;;;;;0.20;0.20;;;;;;;24.93;51.79;97991.19;5013987;28;42520;-88
2021/08/07 07:43:39;;;;;;;0.30;0.30;;;;;;;24.92;51.78;97962.41;5013957;28;39379;-88
2021/08/07 07:46:07;;;;;;;0.30;0.30;;;;;;;24.93;50.85;97974.94;5013379;28;42540;-88
2021/08/07 07:48:35;;;;;;;0.40;0.40;;;;;;;24.84;51.28;97957.22;5013246;28;42698;-88
2021/08/07 07:51:02;;;;;;;1.37;0.70;;;;;;;24.77;51.49;97940.94;5030073;28;41611;-87
2021/08/07 07:53:30;;;;;;;0.50;0.50;;;;;;;24.84;51.57;97954.50;5013761;28;39284;-88
2021/08/07 07:55:58;;;;;;;0.30;0.30;;;;;;;24.79;51.87;97954.28;5014015;28;40828;-88
2021/08/07 07:58:28;;;;;;;0.40;0.40;;;;;;;24.73;52.40;97944.28;5013994;28;43049;-87
2021/08/07 08:00:56;;;;;;;0.33;0.30;;;;;;;24.87;51.91;97964.91;5029186;28;42258;-87
2021/08/07 08:03:24;;;;;;;0.40;0.40;;;;;;;24.96;51.54;97969.94;5013405;28;39830;-88
2021/08/07 08:05:51;;;;;;;0.20;0.20;;;;;;;25.04;51.38;97966.19;5013147;28;40984;-87
2021/08/07 08:08:19;;;;;;;0.40;0.40;;;;;;;25.20;51.45;97968.47;5029327;28;41743;-87
2021/08/07 08:10:47;;;;;;;0.40;0.40;;;;;;;25.36;51.57;97946.31;5013918;28;42069;-88
2021/08/07 08:13:20;;;;;;;0.20;0.20;;;;;;;25.57;51.44;97960.69;5013077;28;39211;-87
2021/08/07 08:15:50;;;;;;;0.43;0.40;;;;;;;25.61;50.51;97967.34;5013022;28;40952;-87
2021/08/07 08:18:20;;;;;;;0.17;0.17;;;;;;;25.71;50.88;97979.44;5029062;28;43872;-89
2021/08/07 08:20:48;;;;;;;0.30;0.30;;;;;;;25.59;50.92;97970.25;5013802;28;41180;-88
2021/08/07 08:23:16;;;;;;;0.33;0.33;;;;;;;25.48;51.57;97956.50;5013257;28;40236;-88
2021/08/07 08:25:45;;;;;;;0.20;0.20;;;;;;;25.54;51.08;97956.50;5012789;28;41490;-88
2021/08/07 08:28:13;;;;;;;0.50;0.47;;;;;;;25.91;51.09;97951.41;5012511;28;42234;-87
2021/08/07 08:30:42;;;;;;;0.63;0.30;;;;;;;26.15;51.31;97944.41;5012962;28;42874;-87
2021/08/07 08:33:12;;;;;;;0.53;0.53;;;;;;;26.46;48.50;97955.28;5012593;28;38998;-86
2021/08/07 08:35:42;;;;;;;0.40;0.40;;;;;;;26.72;48.69;97938.81;5012139;28;41933;-88
2021/08/07 08:38:10;;;;;;;0.30;0.30;;;;;;;27.47;47.65;97953.19;5012721;28;41461;-87
2021/08/07 08:40:38;;;;;;;0.30;0.30;;;;;;;27.72;47.76;97949.63;5029831;28;41106;-90
2021/08/07 08:43:07;;;;;;;0.50;0.50;;;;;;;28.03;46.15;97973.13;5012416;28;39379;-87
2021/08/07 08:45:34;;;;;;;0.30;0.30;;;;;;;28.07;46.04;97972.41;5012733;28;41019;-88
2021/08/07 08:48:03;;;;;;;0.40;0.40;;;;;;;28.17;47.03;97969.16;5028401;28;42582;-88
2021/08/07 08:50:34;;;;;;;0.30;0.30;;;;;;;28.11;46.79;97960.00;5013292;28;41267;-88
2021/08/07 08:53:05;;;;;;;0.27;0.27;;;;;;;28.05;47.07;97966.38;5028930;28;40232;-88
2021/08/07 08:55:33;;;;;;;0.40;0.40;;;;;;;28.08;47.19;97965.91;5030308;28;41535;-87
2021/08/07 08:58:02;;;;;;;0.30;0.30;;;;;;;28.17;47.28;97952.84;5012197;28;42404;-89
2021/08/07 09:00:29;;;;;;;0.30;0.30;;;;;;;28.34;46.28;97966.66;5013069;28;41178;-88
2021/08/07 09:02:58;;;;;;;1.70;0.40;;;;;;;28.32;45.88;97939.63;5028830;28;39123;-88
2021/08/07 09:05:26;;;;;;;0.40;0.40;;;;;;;28.51;45.07;97949.44;5029828;28;41827;-88
2021/08/07 09:07:55;;;;;;;0.30;0.30;;;;;;;28.90;45.53;97950.72;5012628;28;41924;-87
2021/08/07 09:10:25;;;;;;;0.30;0.30;;;;;;;29.45;44.88;97961.31;5012636;28;41312;-88
2021/08/07 09:12:58;;;;;;;0.30;0.30;;;;;;;30.02;43.93;97966.13;5028115;28;40313;-87
2021/08/07 09:15:36;;;;;;;0.40;0.40;;;;;;;30.32;42.56;97955.78;5028526;28;41127;-87
2021/08/07 09:18:24;;;;;;;1.53;0.93;;;;;;;30.66;41.13;97975.88;5012214;28;42258;-89
2021/08/07 09:20:56;;;;;;;0.70;0.70;;;;;;;30.79;39.98;97981.00;5012350;28;42478;-88
2021/08/07 09:23:34;;;;;;;0.30;0.30;;;;;;;30.85;40.09;97982.78;5012039;28;38975;-89
2021/08/07 09:26:21;;;;;;;0.50;0.50;;;;;;;30.99;40.33;97977.81;5011954;28;42130;-88
2021/08/07 09:28:54;;;;;;;0.53;0.53;;;;;;;31.04;40.82;97961.47;5011773;28;43140;-88
2021/08/07 09:31:34;;;;;;;0.47;0.47;;;;;;;31.16;40.44;97961.44;5011399;28;41205;-88
2021/08/07 09:34:17;;;;;;;0.43;0.43;;;;;;;31.23;39.84;97957.44;5012195;28;38871;-88
2021/08/07 09:36:47;;;;;;;0.30;0.30;;;;;;;31.87;38.58;97985.22;5027912;28;41733;-88
2021/08/07 09:39:35;;;;;;;0.50;0.50;;;;;;;31.77;37.37;97969.47;5011833;28;41879;-89
2021/08/07 09:42:04;;;;;;;0.63;0.60;;;;;;;31.75;38.53;97977.13;5011799;28;41284;-89
2021/08/07 09:44:36;;;;;;;0.60;0.50;;;;;;;31.64;38.44;97969.03;5011982;28;40133;-88
2021/08/07 09:47:08;;;;;;;0.80;0.53;;;;;;;31.92;38.97;97976.22;5010796;28;40747;-88
2021/08/07 09:49:38;;;;;;;0.70;0.70;;;;;;;32.26;36.80;97991.50;5012640;28;42047;-87
2021/08/07 09:52:07;;;;;;;1.80;0.60;;;;;;;32.37;36.31;97989.69;5011915;28;41478;-87
2021/08/07 09:54:39;;;;;;;0.80;0.80;;;;;;;33.05;35.99;97978.06;5012144;28;39853;-88
2021/08/07 09:57:09;;;;;;;0.93;0.87;;;;;;;33.74;35.41;97983.53;5011827;28;41650;-88
2021/08/07 09:59:47;;;;;;;1.00;0.90;;;;;;;34.13;33.79;97978.50;5015023;28;42897;-88
2021/08/07 10:02:21;;;;;;;0.60;0.57;;;;;;;34.58;32.20;98005.38;5030281;28;41325;-89
2021/08/07 10:04:52;;;;;;;0.90;0.90;;;;;;;34.24;32.67;97987.63;5016282;28;39203;-88
2021/08/07 10:07:20;;;;;;;0.77;0.70;;;;;;;34.13;32.27;97974.91;5014471;28;41032;-88
2021/08/07 10:10:20;;;;;;;0.40;0.40;;;;;;;34.00;32.75;97961.72;5014779;28;42848;-88
2021/08/07 10:12:49;;;;;;;0.63;0.63;;;;;;;33.69;32.48;97936.78;5015552;28;42317;-88
2021/08/07 10:15:24;;;;;;;0.50;0.50;;;;;;;33.75;33.67;97955.00;5015078;28;38802;-88
2021/08/07 10:17:53;;;;;;;0.43;0.40;;;;;;;34.39;31.22;97960.19;5032253;28;42113;-89
2021/08/07 10:20:21;;;;;;;0.60;0.60;;;;;;;34.64;30.12;97969.59;5015043;28;41843;-91
2021/08/07 10:22:51;;;;;;;1.70;0.60;;;;;;;34.23;30.63;97974.97;5015949;28;41361;-88
2021/08/07 10:25:20;;;;;;;0.50;0.50;;;;;;;33.86;33.02;97956.69;5032616;28;39029;-88
2021/08/07 10:27:52;;;;;;;0.40;0.40;;;;;;;33.35;32.93;97935.50;5034064;28;41516;-88
2021/08/07 10:30:22;;;;;;;0.77;0.77;;;;;;;33.27;32.56;97968.91;5016631;28;43222;-88
2021/08/07 10:32:56;;;;;;;0.50;0.50;;;;;;;33.24;32.92;97969.47;5050567;28;42522;-89
2021/08/07 10:35:26;;;;;;;0.70;0.70;;;;;;;33.33;33.30;97943.16;5040775;28;40660;-90
2021/08/07 10:37:57;;;;;;;0.50;0.50;;;;;;;33.80;33.26;97946.78;5039495;28;42450;-89
2021/08/07 10:40:27;;;;;;;0.60;0.60;;;;;;;34.56;31.86;97955.28;5056973;28;43027;-88
2021/08/07 10:42:57;;;;;;;1.23;1.13;;;;;;;34.75;32.03;97952.00;5038796;28;42204;-90
2021/08/07 10:45:25;;;;;;;0.70;0.63;;;;;;;34.46;30.71;97974.53;5039847;28;40170;-88
2021/08/07 10:47:54;;;;;;;0.60;0.60;;;;;;;34.04;31.42;97960.06;5039106;28;41973;-89
2021/08/07 10:50:36;;;;;;;0.40;0.40;;;;;;;33.48;32.69;97929.56;5050756;28;42844;-88
2021/08/07 10:53:38;;;;;;;0.50;0.50;;;;;;;32.97;31.48;97967.56;5045772;28;42113;-89
2021/08/07 10:56:09;;;;;;;0.60;0.60;;;;;;;32.24;32.52;97958.03;5030423;28;39733;-89
2021/08/07 10:58:40;;;;;;;0.73;0.50;;;;;;;31.69;33.26;97955.41;5032129;28;41041;-89
2021/08/07 11:01:27;;;;;;;0.60;0.60;;;;;;;31.23;34.45;97951.16;5030756;28;41934;-88
2021/08/07 11:04:09;;;;;;;0.43;0.43;;;;;;;30.79;34.04;97930.97;5029744;28;41469;-89
2021/08/07 11:07:05;;;;;;;0.47;0.47;;;;;;;30.55;35.44;97924.81;5033126;28;39295;-90
2021/08/07 11:09:35;;;;;;;0.60;0.50;;;;;;;30.57;35.94;97936.34;5033351;28;40704;-89
2021/08/07 11:12:29;;;;;;;0.50;0.50;;;;;;;30.59;36.82;97917.78;5016569;28;41895;-89
2021/08/07 11:15:15;;;;;;;1.60;0.70;;;;;;;30.61;36.02;97932.88;5016471;28;41788;-89
2021/08/07 11:17:52;;;;;;;0.53;0.40;;;;;;;30.51;35.61;97926.38;5016508;28;40003;-89
2021/08/07 11:20:43;;;;;;;0.40;0.40;;;;;;;30.45;34.92;97921.88;5014258;28;40718;-89
2021/08/07 11:23:16;;;;;;;0.30;0.30;;;;;;;30.47;35.21;97915.09;5032190;28;41796;-87
2021/08/07 11:26:05;;;;;;;0.60;0.60;;;;;;;30.31;33.79;97911.25;5015717;28;41339;-90
2021/08/07 11:28:55;;;;;;;0.40;0.30;;;;;;;30.28;33.63;97936.34;5017060;28;39809;-88
2021/08/07 11:31:23;;;;;;;0.30;0.30;;;;;;;30.31;34.49;97922.19;5016345;28;41727;-87
2021/08/07 11:34:24;;;;;;;0.50;0.50;;;;;;;30.32;35.15;97901.16;5015673;28;41759;-87
2021/08/07 11:37:16;;;;;;;0.80;0.80;;;;;;;30.41;35.37;97898.88;5031639;28;41434;-87
2021/08/07 11:40:21;;;;;;;0.30;0.30;;;;;;;30.43;34.75;97910.38;5015817;28;38699;-87
2021/08/07 11:42:50;;;;;;;0.47;0.47;;;;;;;30.32;34.92;97917.56;5016220;28;40723;-86
2021/08/07 11:45:32;;;;;;;0.30;0.30;;;;;;;30.21;35.19;97910.25;5017154;28;41700;-86
2021/08/07 11:48:00;;;;;;;0.50;0.50;;;;;;;30.05;34.87;97911.84;5016028;28;41385;-87
2021/08/07 11:50:27;;;;;;;0.30;0.30;;;;;;;29.96;34.57;97918.78;5016854;28;39225;-88
2021/08/07 11:52:55;;;;;;;0.30;0.30;;;;;;;29.80;34.84;97908.56;5014345;28;40662;-89
2021/08/07 11:55:23;;;;;;;0.30;0.30;;;;;;;29.74;35.25;97896.75;5015114;28;41740;-87
2021/08/07 11:58:04;;;;;;;0.43;0.40;;;;;;;29.92;34.60;97903.94;5014896;28;42180;-86
2021/08/07 12:00:34;;;;;;;0.33;0.33;;;;;;;29.91;34.61;97877.72;5014164;28;38983;-88
2021/08/07 12:03:04;;;;;;;1.23;1.10;;;;;;;30.33;34.76;97892.72;5014291;28;40753;-88
2021/08/07 12:05:33;;;;;;;0.57;0.40;;;;;;;30.54;34.12;97890.41;5014995;28;41750;-89
2021/08/07 12:08:06;;;;;;;0.30;0.30;;;;;;;30.58;34.46;97889.63;5013074;28;41476;-88
2021/08/07 12:10:37;;;;;;;0.40;0.40;;;;;;;30.49;34.65;97879.34;5029559;28;39005;-87
2021/08/07 12:13:05;;;;;;;0.40;0.40;;;;;;;30.42;34.56;97884.13;5030178;28;40583;-87
2021/08/07 12:15:36;;;;;;;0.30;0.30;;;;;;;30.12;34.63;97860.66;5047324;28;43107;-89
2021/08/07 12:18:03;;;;;;;0.23;0.23;;;;;;;29.87;34.71;97849.22;5013766;28;42196;-88